createdAt,value
2018-04-27T00:01:40.879Z,92.50
2018-04-27T00:04:09.042Z,92.50
2018-04-27T00:06:38.004Z,92.70
2018-04-27T00:09:06.154Z,92.70
2018-04-27T00:11:35.483Z,92.80
2018-04-27T00:14:03.774Z,92.70
2018-04-27T00:16:32.766Z,92.90
2018-04-27T00:19:01.703Z,92.80
2018-04-27T00:21:29.860Z,92.80
2018-04-27T00:23:58.021Z,92.90
2018-04-27T00:26:26.315Z,93.00
2018-04-27T00:28:54.462Z,93.00
2018-04-27T00:31:22.631Z,93.00
2018-04-27T00:33:51.577Z,93.00
2018-04-27T00:36:19.729Z,93.00
2018-04-27T00:38:47.880Z,93.00
2018-04-27T00:41:16.039Z,93.10
2018-04-27T00:43:44.956Z,93.00
2018-04-27T00:46:13.104Z,93.00
2018-04-27T00:48:42.028Z,93.00
2018-04-27T00:51:10.213Z,93.00
2018-04-27T00:53:38.491Z,93.10
2018-04-27T00:56:06.863Z,93.20
2018-04-27T00:58:35.002Z,92.90
2018-04-27T01:01:03.915Z,92.80
2018-04-27T01:03:32.063Z,92.70
2018-04-27T01:06:00.977Z,92.70
2018-04-27T01:08:30.069Z,92.40
2018-04-27T01:10:58.298Z,92.40
2018-04-27T01:13:26.447Z,92.40
2018-04-27T01:15:54.730Z,92.50
2018-04-27T01:18:22.904Z,92.40
2018-04-27T01:20:51.178Z,92.40
2018-04-27T01:23:19.443Z,92.40
2018-04-27T01:25:47.607Z,92.30
2018-04-27T01:28:15.778Z,92.30
2018-04-27T01:30:44.752Z,92.30
2018-04-27T01:33:13.663Z,92.20
2018-04-27T01:35:42.651Z,92.20
2018-04-27T01:38:10.814Z,92.20
2018-04-27T01:40:38.972Z,92.20
2018-04-27T01:43:07.891Z,92.30
2018-04-27T01:45:36.151Z,92.30
2018-04-27T01:48:04.423Z,92.40
2018-04-27T01:50:33.341Z,92.60
2018-04-27T01:53:01.493Z,92.60
2018-04-27T01:55:29.703Z,92.80
2018-04-27T01:57:57.993Z,92.80
2018-04-27T02:00:26.249Z,92.90
2018-04-27T02:02:54.527Z,93.10
2018-04-27T02:05:22.741Z,93.30
2018-04-27T02:07:50.874Z,93.50
2018-04-27T02:10:19.043Z,93.60
2018-04-27T02:12:47.267Z,93.70
2018-04-27T02:15:19.399Z,94.00
2018-04-27T02:17:47.502Z,94.00
2018-04-27T02:20:15.873Z,94.00
2018-04-27T02:22:44.059Z,94.20
2018-04-27T02:25:12.990Z,94.50
2018-04-27T02:27:41.336Z,94.50
2018-04-27T02:30:10.214Z,94.40
2018-04-27T02:32:38.311Z,94.40
2018-04-27T02:35:06.502Z,94.50
2018-04-27T02:37:34.609Z,94.60
2018-04-27T02:40:02.817Z,94.50
2018-04-27T02:42:31.041Z,94.50
2018-04-27T02:44:59.972Z,94.40
2018-04-27T02:47:28.077Z,94.40
2018-04-27T02:49:56.168Z,94.70
2018-04-27T02:52:24.290Z,94.60
2018-04-27T02:54:53.845Z,94.80
2018-04-27T02:57:22.046Z,94.60
2018-04-27T02:59:50.156Z,94.60
2018-04-27T03:02:18.580Z,94.80
2018-04-27T03:04:46.682Z,94.80
2018-04-27T03:07:14.802Z,94.90
2018-04-27T03:09:42.905Z,94.90
2018-04-27T03:12:10.997Z,95.00
2018-04-27T03:14:39.113Z,95.00
2018-04-27T03:17:07.263Z,95.10
2018-04-27T03:19:36.128Z,94.80
2018-04-27T03:22:04.317Z,94.80
2018-04-27T03:24:32.407Z,94.70
2018-04-27T03:27:02.668Z,94.60
2018-04-27T03:29:30.779Z,94.60
2018-04-27T03:31:58.902Z,94.70
2018-04-27T03:34:27.123Z,94.80
2018-04-27T03:36:55.520Z,94.70
2018-04-27T03:39:24.387Z,94.70
2018-04-27T03:41:52.479Z,94.70
2018-04-27T03:44:21.361Z,95.30
2018-04-27T03:46:49.465Z,94.80
2018-04-27T03:49:17.576Z,95.40
2018-04-27T03:51:45.750Z,95.00
2018-04-27T03:54:13.959Z,94.70
2018-04-27T03:56:42.059Z,94.70
2018-04-27T03:59:10.927Z,94.90
2018-04-27T04:01:51.553Z,95.10
2018-04-27T04:04:31.545Z,95.10
2018-04-27T04:07:00.401Z,95.00
2018-04-27T04:09:29.720Z,94.90
2018-04-27T04:11:57.990Z,94.90
2018-04-27T04:14:26.181Z,94.90
2018-04-27T04:16:54.411Z,94.80
2018-04-27T04:19:22.612Z,95.10
2018-04-27T04:21:50.717Z,95.10
2018-04-27T04:24:19.589Z,95.10
2018-04-27T04:26:47.756Z,95.10
2018-04-27T04:29:15.823Z,95.20
2018-04-27T04:31:43.911Z,95.20
2018-04-27T04:34:12.785Z,95.30
2018-04-27T04:36:40.888Z,95.30
2018-04-27T04:39:09.800Z,95.30
2018-04-27T04:41:37.913Z,95.30
2018-04-27T04:44:06.147Z,95.40
2018-04-27T04:46:34.374Z,95.30
2018-04-27T04:49:02.889Z,95.40
2018-04-27T04:51:31.753Z,95.60
2018-04-27T04:54:00.457Z,95.50
2018-04-27T04:56:29.346Z,95.50
2018-04-27T04:58:58.211Z,95.60
2018-04-27T05:01:26.350Z,95.50
2018-04-27T05:03:54.556Z,95.30
2018-04-27T05:06:22.697Z,95.10
2018-04-27T05:08:50.801Z,94.80
2018-04-27T05:11:19.968Z,94.50
2018-04-27T05:13:48.140Z,94.40
2018-04-27T05:16:16.236Z,93.90
2018-04-27T05:18:53.960Z,93.30
2018-04-27T05:21:22.813Z,92.80
2018-04-27T05:23:50.944Z,92.70
2018-04-27T05:26:20.662Z,92.30
2018-04-27T05:28:48.766Z,92.30
2018-04-27T05:31:23.805Z,92.20
2018-04-27T05:33:51.906Z,92.00
2018-04-27T05:36:20.819Z,91.40
2018-04-27T05:38:49.927Z,91.10
2018-04-27T05:41:18.017Z,91.10
2018-04-27T05:43:46.127Z,90.80
2018-04-27T05:46:14.295Z,90.60
2018-04-27T05:48:42.364Z,90.50
2018-04-27T05:51:10.608Z,90.30
2018-04-27T05:53:38.715Z,89.90
2018-04-27T05:56:06.827Z,89.70
2018-04-27T05:58:34.932Z,88.80
2018-04-27T06:01:03.761Z,89.10
2018-04-27T06:03:43.838Z,88.80
2018-04-27T06:06:12.709Z,86.50
2018-04-27T06:08:40.847Z,86.50
2018-04-27T06:11:08.939Z,86.30
2018-04-27T06:13:37.153Z,85.60
2018-04-27T06:16:06.062Z,83.80
2018-04-27T06:18:36.720Z,83.80
2018-04-27T06:21:04.808Z,83.70
2018-04-27T06:23:33.061Z,82.60
2018-04-27T06:26:01.296Z,82.50
2018-04-27T06:28:45.195Z,82.50
2018-04-27T06:31:13.297Z,82.40
2018-04-27T06:33:42.168Z,82.10
2018-04-27T06:36:10.284Z,82.00
2018-04-27T06:38:38.798Z,81.90
2018-04-27T06:41:06.886Z,81.30
2018-04-27T06:43:34.982Z,80.80
2018-04-27T06:46:03.852Z,80.20
2018-04-27T06:48:32.052Z,79.30
2018-04-27T06:51:01.023Z,78.40
2018-04-27T06:53:30.639Z,78.40
2018-04-27T06:55:58.897Z,78.30
2018-04-27T06:58:27.028Z,78.40
2018-04-27T07:00:55.130Z,78.60
2018-04-27T07:03:23.233Z,78.60
2018-04-27T07:05:52.849Z,76.90
2018-04-27T07:08:21.722Z,76.10
2018-04-27T07:10:49.809Z,76.10
2018-04-27T07:13:18.765Z,73.40
2018-04-27T07:15:47.046Z,72.90
2018-04-27T07:18:15.299Z,71.20
2018-04-27T07:20:43.417Z,71.10
2018-04-27T07:23:11.517Z,69.90
2018-04-27T07:25:40.385Z,68.90
2018-04-27T07:28:10.015Z,66.10
2018-04-27T07:30:38.882Z,65.70
2018-04-27T07:33:06.981Z,65.70
2018-04-27T07:35:35.110Z,63.60
2018-04-27T07:38:03.247Z,61.80
2018-04-27T07:40:31.603Z,60.60
2018-04-27T07:43:01.428Z,59.50
2018-04-27T07:45:29.537Z,59.40
2018-04-27T07:47:57.665Z,57.90
2018-04-27T07:50:25.809Z,57.60
2018-04-27T07:52:55.412Z,57.40
2018-04-27T07:55:24.303Z,56.90
2018-04-27T07:57:52.478Z,56.90
2018-04-27T08:00:20.576Z,57.10
2018-04-27T08:02:49.938Z,57.90
2018-04-27T08:05:18.061Z,57.90
2018-04-27T08:07:46.171Z,58.90
2018-04-27T08:10:15.485Z,58.60
2018-04-27T08:12:43.658Z,59.40
2018-04-27T08:15:11.782Z,59.90
2018-04-27T08:17:40.056Z,59.20
2018-04-27T08:20:08.902Z,59.20
2018-04-27T08:22:38.603Z,59.30
2018-04-27T08:25:06.703Z,59.30
2018-04-27T08:27:34.848Z,58.70
2018-04-27T08:30:03.050Z,58.60
2018-04-27T08:32:32.710Z,58.20
2018-04-27T08:35:00.806Z,58.00
2018-04-27T08:37:28.921Z,58.40
2018-04-27T08:39:57.794Z,58.10
2018-04-27T08:42:26.678Z,58.30
2018-04-27T08:44:54.781Z,58.30
2018-04-27T08:47:22.868Z,57.90
2018-04-27T08:49:51.903Z,56.60
2018-04-27T08:52:20.689Z,56.70
2018-04-27T08:54:48.816Z,56.80
2018-04-27T08:57:17.694Z,55.60
2018-04-27T08:59:45.803Z,55.60
2018-04-27T09:02:13.950Z,55.60
2018-04-27T09:04:42.095Z,55.20
2018-04-27T09:07:10.362Z,54.90
2018-04-27T09:09:38.481Z,54.20
2018-04-27T09:12:06.620Z,54.00
2018-04-27T09:14:35.619Z,52.40
2018-04-27T09:17:03.859Z,52.20
2018-04-27T09:19:32.077Z,52.30
2018-04-27T09:22:01.140Z,51.70
2018-04-27T09:24:30.734Z,52.60
2018-04-27T09:26:58.968Z,52.60
2018-04-27T09:29:27.945Z,53.70
2018-04-27T09:31:57.581Z,53.90
2018-04-27T09:34:25.674Z,53.90
2018-04-27T09:36:53.784Z,52.70
2018-04-27T09:39:22.650Z,53.10
2018-04-27T09:41:52.711Z,52.80
2018-04-27T09:44:20.869Z,52.80
2018-04-27T09:46:49.026Z,51.20
2018-04-27T09:49:17.147Z,49.50
2018-04-27T09:51:45.282Z,48.80
2018-04-27T09:54:14.159Z,49.70
2018-04-27T09:56:42.344Z,48.90
2018-04-27T09:59:10.524Z,47.30
2018-04-27T10:01:38.614Z,47.30
2018-04-27T10:04:07.490Z,48.80
2018-04-27T10:06:36.361Z,47.70
2018-04-27T10:09:04.569Z,47.50
2018-04-27T10:11:33.460Z,45.30
2018-04-27T10:14:02.331Z,44.90
2018-04-27T10:16:32.552Z,44.80
2018-04-27T10:19:01.529Z,45.40
2018-04-27T10:21:29.738Z,42.80
2018-04-27T10:23:58.609Z,43.60
2018-04-27T10:26:27.494Z,41.10
2018-04-27T10:28:55.757Z,41.00
2018-04-27T10:31:23.951Z,42.40
2018-04-27T10:33:52.369Z,41.40
2018-04-27T10:36:20.502Z,41.60
2018-04-27T10:38:48.775Z,41.20
2018-04-27T10:41:16.965Z,41.00
2018-04-27T10:43:45.131Z,40.70
2018-04-27T10:46:14.745Z,40.30
2018-04-27T10:48:44.013Z,38.90
2018-04-27T10:51:12.315Z,38.80
2018-04-27T10:53:40.446Z,38.60
2018-04-27T10:56:08.623Z,39.40
2018-04-27T10:58:37.446Z,40.90
2018-04-27T11:01:05.538Z,40.90
2018-04-27T11:03:33.642Z,42.20
2018-04-27T11:06:01.742Z,41.30
2018-04-27T11:08:30.038Z,40.30
2018-04-27T11:10:58.276Z,41.40
2018-04-27T11:13:26.262Z,41.30
2018-04-27T11:15:54.395Z,42.50
2018-04-27T11:18:22.567Z,43.20
2018-04-27T11:20:50.784Z,43.40
2018-04-27T11:23:19.138Z,43.70
2018-04-27T11:25:47.256Z,43.40
2018-04-27T11:28:15.356Z,43.00
2018-04-27T11:30:43.580Z,43.00
2018-04-27T11:33:11.697Z,41.60
2018-04-27T11:35:40.569Z,39.60
2018-04-27T11:38:09.264Z,39.60
2018-04-27T11:40:38.135Z,38.60
2018-04-27T11:43:06.352Z,38.60
2018-04-27T11:45:34.482Z,38.00
2018-04-27T11:48:02.771Z,38.30
2018-04-27T11:50:31.646Z,38.00
2018-04-27T11:52:59.782Z,37.50
2018-04-27T11:55:27.904Z,38.40
2018-04-27T11:57:56.007Z,38.70
2018-04-27T12:00:25.881Z,38.10
2018-04-27T12:02:54.000Z,39.50
2018-04-27T12:05:22.121Z,40.00
2018-04-27T12:07:50.225Z,40.20
2018-04-27T12:10:19.120Z,39.70
2018-04-27T12:12:47.230Z,39.70
2018-04-27T12:15:15.431Z,40.40
2018-04-27T12:17:43.563Z,39.60
2018-04-27T12:20:11.812Z,39.20
2018-04-27T12:22:40.669Z,40.20
2018-04-27T12:25:09.574Z,39.90
2018-04-27T12:27:37.661Z,39.50
2018-04-27T12:30:06.547Z,38.90
2018-04-27T12:32:35.429Z,38.60
2018-04-27T12:35:04.291Z,39.10
2018-04-27T12:37:32.520Z,38.40
2018-04-27T12:40:01.071Z,38.20
2018-04-27T12:42:29.166Z,38.70
2018-04-27T12:44:57.363Z,39.90
2018-04-27T12:47:25.537Z,39.40
2018-04-27T12:49:53.797Z,39.50
2018-04-27T12:52:22.874Z,39.20
2018-04-27T12:54:51.760Z,39.30
2018-04-27T12:57:20.617Z,39.30
2018-04-27T12:59:48.728Z,39.30
2018-04-27T13:02:17.612Z,41.70
2018-04-27T13:04:46.494Z,41.70
2018-04-27T13:07:14.582Z,41.70
2018-04-27T13:09:43.565Z,42.20
2018-04-27T13:12:11.839Z,42.10
2018-04-27T13:14:40.100Z,40.80
2018-04-27T13:17:08.292Z,40.80
2018-04-27T13:19:36.402Z,41.60
2018-04-27T13:22:04.578Z,40.60
2018-04-27T13:24:32.793Z,40.40
2018-04-27T13:27:00.890Z,41.40
2018-04-27T13:29:29.779Z,39.60
2018-04-27T13:31:59.025Z,38.50
2018-04-27T13:34:27.295Z,38.50
2018-04-27T13:36:55.440Z,39.10
2018-04-27T13:39:24.457Z,39.30
2018-04-27T13:41:52.593Z,39.20
2018-04-27T13:44:21.457Z,39.40
2018-04-27T13:46:49.569Z,39.40
2018-04-27T13:49:18.439Z,38.40
2018-04-27T13:51:46.942Z,38.40
2018-04-27T13:54:14.985Z,38.00
2018-04-27T13:56:43.194Z,38.20
2018-04-27T13:59:12.934Z,38.80
2018-04-27T14:01:41.046Z,38.70
2018-04-27T14:04:09.153Z,38.10
2018-04-27T14:06:37.270Z,37.60
2018-04-27T14:09:05.532Z,37.50
2018-04-27T14:11:33.948Z,37.50
2018-04-27T14:14:02.091Z,38.00
2018-04-27T14:16:30.193Z,38.00
2018-04-27T14:18:59.095Z,38.20
2018-04-27T14:21:28.025Z,37.90
2018-04-27T14:23:56.075Z,38.20
2018-04-27T14:26:24.182Z,39.00
2018-04-27T14:28:53.668Z,38.70
2018-04-27T14:31:21.779Z,38.70
2018-04-27T14:33:49.980Z,38.40
2018-04-27T14:36:18.768Z,37.00
2018-04-27T14:38:47.643Z,37.30
2018-04-27T14:41:16.634Z,36.60
2018-04-27T14:43:44.787Z,36.60
2018-04-27T14:46:13.088Z,35.90
2018-04-27T14:48:41.237Z,35.10
2018-04-27T14:51:10.175Z,35.80
2018-04-27T14:53:39.161Z,36.60
2018-04-27T14:56:08.141Z,36.90
2018-04-27T14:58:36.477Z,36.80
2018-04-27T15:01:04.606Z,37.80
2018-04-27T15:03:33.667Z,37.50
2018-04-27T15:06:01.964Z,37.40
2018-04-27T15:08:30.111Z,37.30
2018-04-27T15:10:58.212Z,38.50
2018-04-27T15:13:26.367Z,36.70
2018-04-27T15:15:55.076Z,36.00
2018-04-27T15:18:23.269Z,32.60
2018-04-27T15:20:51.544Z,31.30
2018-04-27T15:23:19.646Z,29.60
2018-04-27T15:25:47.979Z,29.50
2018-04-27T15:28:17.579Z,29.80
2018-04-27T15:30:46.458Z,29.90
2018-04-27T15:33:15.349Z,30.40
2018-04-27T15:35:43.465Z,30.30
2018-04-27T15:38:11.566Z,32.00
2018-04-27T15:40:39.867Z,32.80
2018-04-27T15:43:08.825Z,32.90
2018-04-27T15:45:36.996Z,33.50
2018-04-27T15:48:05.850Z,33.70
2018-04-27T15:50:34.722Z,33.60
2018-04-27T15:53:02.851Z,33.60
2018-04-27T15:55:31.017Z,34.10
2018-04-27T15:57:59.132Z,34.70
2018-04-27T16:00:27.462Z,35.20
2018-04-27T16:02:55.573Z,35.40
2018-04-27T16:05:24.486Z,34.90
2018-04-27T16:07:53.294Z,34.90
2018-04-27T16:10:22.165Z,33.60
2018-04-27T16:12:50.374Z,33.60
2018-04-27T16:15:18.683Z,33.20
2018-04-27T16:17:46.892Z,34.20
2018-04-27T16:20:14.994Z,35.00
2018-04-27T16:22:43.099Z,35.10
2018-04-27T16:25:11.290Z,35.70
2018-04-27T16:27:39.407Z,36.00
2018-04-27T16:30:07.593Z,36.50
2018-04-27T16:32:35.704Z,37.40
2018-04-27T16:35:03.797Z,37.60
2018-04-27T16:37:32.730Z,38.30
2018-04-27T16:40:01.594Z,38.00
2018-04-27T16:42:29.698Z,38.00
2018-04-27T16:44:57.824Z,39.10
2018-04-27T16:47:26.685Z,38.60
2018-04-27T16:49:54.891Z,38.60
2018-04-27T16:52:23.004Z,38.50
2018-04-27T16:54:51.094Z,38.90
2018-04-27T16:57:19.272Z,39.20
2018-04-27T16:59:47.362Z,39.80
2018-04-27T17:02:15.521Z,40.30
2018-04-27T17:04:43.663Z,40.10
2018-04-27T17:07:12.006Z,41.10
2018-04-27T17:09:40.161Z,41.20
2018-04-27T17:12:08.428Z,41.10
2018-04-27T17:14:36.569Z,39.80
2018-04-27T17:17:04.688Z,38.40
2018-04-27T17:19:32.863Z,38.50
2018-04-27T17:22:00.979Z,38.60
2018-04-27T17:24:29.915Z,39.50
2018-04-27T17:26:58.013Z,39.50
2018-04-27T17:29:27.103Z,40.40
2018-04-27T17:31:55.339Z,41.00
2018-04-27T17:34:23.672Z,41.40
2018-04-27T17:36:51.886Z,41.00
2018-04-27T17:39:20.722Z,42.20
2018-04-27T17:41:48.809Z,42.10
2018-04-27T17:44:17.695Z,42.60
2018-04-27T17:46:45.811Z,42.60
2018-04-27T17:49:14.839Z,43.00
2018-04-27T17:51:42.976Z,43.00
2018-04-27T17:54:11.085Z,43.40
2018-04-27T17:56:39.296Z,43.40
2018-04-27T17:59:08.182Z,43.80
2018-04-27T18:01:37.055Z,43.70
2018-04-27T18:04:05.330Z,43.70
2018-04-27T18:06:33.443Z,44.00
2018-04-27T18:09:01.535Z,44.30
2018-04-27T18:11:29.683Z,44.80
2018-04-27T18:13:57.747Z,45.10
2018-04-27T18:16:26.780Z,45.80
2018-04-27T18:18:54.912Z,45.80
2018-04-27T18:21:23.765Z,46.90
2018-04-27T18:23:52.026Z,46.80
2018-04-27T18:26:20.151Z,47.70
2018-04-27T18:28:49.063Z,50.00
2018-04-27T18:31:17.908Z,49.80
2018-04-27T18:33:46.004Z,49.90
2018-04-27T18:36:14.993Z,50.90
2018-04-27T18:38:43.862Z,51.30
2018-04-27T18:41:12.039Z,51.30
2018-04-27T18:43:41.036Z,51.40
2018-04-27T18:46:09.099Z,51.40
2018-04-27T18:48:38.098Z,51.60
2018-04-27T18:51:06.244Z,52.00
2018-04-27T18:53:35.451Z,52.60
2018-04-27T18:56:07.483Z,52.70
2018-04-27T18:58:35.777Z,52.80
2018-04-27T19:01:03.994Z,52.70
2018-04-27T19:03:32.332Z,52.20
2018-04-27T19:06:04.038Z,51.80
2018-04-27T19:08:32.139Z,51.80
2018-04-27T19:11:00.433Z,52.80
2018-04-27T19:13:28.534Z,52.30
2018-04-27T19:15:58.504Z,52.60
2018-04-27T19:18:26.771Z,52.60
2018-04-27T19:20:55.191Z,52.80
2018-04-27T19:23:23.329Z,53.00
2018-04-27T19:25:52.523Z,52.70
2018-04-27T19:28:20.815Z,52.80
2018-04-27T19:30:48.935Z,53.00
2018-04-27T19:33:17.827Z,53.60
2018-04-27T19:35:46.154Z,53.50
2018-04-27T19:38:14.408Z,54.50
2018-04-27T19:40:43.510Z,56.30
2018-04-27T19:43:11.651Z,56.30
2018-04-27T19:45:39.813Z,56.70
2018-04-27T19:48:07.989Z,56.90
2018-04-27T19:50:38.628Z,57.90
2018-04-27T19:53:07.384Z,57.90
2018-04-27T19:55:35.694Z,58.80
2018-04-27T19:58:04.679Z,59.60
2018-04-27T20:00:33.446Z,59.00
2018-04-27T20:03:01.831Z,59.70
2018-04-27T20:05:29.989Z,59.60
2018-04-27T20:07:58.134Z,59.80
2018-04-27T20:10:41.388Z,60.00
2018-04-27T20:13:12.181Z,61.00
2018-04-27T20:15:42.853Z,61.00
2018-04-27T20:18:16.892Z,61.40
2018-04-27T20:20:46.021Z,61.70
2018-04-27T20:23:15.059Z,62.40
2018-04-27T20:25:43.211Z,62.40
2018-04-27T20:28:12.042Z,62.50
2018-04-27T20:30:40.249Z,62.40
2018-04-27T20:33:14.401Z,62.40
2018-04-27T20:35:42.664Z,62.00
2018-04-27T20:38:16.432Z,62.60
2018-04-27T20:40:45.625Z,62.80
2018-04-27T20:43:14.590Z,62.70
2018-04-27T20:45:42.780Z,63.00
2018-04-27T20:48:14.780Z,62.90
2018-04-27T20:50:50.722Z,62.20
2018-04-27T20:53:20.968Z,62.30
2018-04-27T20:56:09.309Z,62.20
2018-04-27T20:58:37.500Z,61.80
2018-04-27T21:01:05.941Z,62.00
2018-04-27T21:03:35.031Z,62.60
2018-04-27T21:06:03.145Z,62.40
2018-04-27T21:08:31.473Z,63.00
2018-04-27T21:11:00.202Z,62.90
2018-04-27T21:13:28.424Z,63.30
2018-04-27T21:15:56.842Z,63.80
2018-04-27T21:18:24.990Z,64.60
2018-04-27T21:20:53.866Z,65.20
2018-04-27T21:23:22.633Z,66.30
2018-04-27T21:25:51.910Z,67.00
2018-04-27T21:28:32.279Z,74.60
2018-04-27T21:31:00.526Z,74.60
2018-04-27T21:33:32.216Z,75.90
2018-04-27T21:36:06.012Z,78.40
2018-04-27T21:38:44.710Z,79.30
2018-04-27T21:41:22.695Z,78.40
2018-04-27T21:43:50.923Z,78.30
2018-04-27T21:46:25.497Z,78.30
2018-04-27T21:48:54.410Z,77.50
2018-04-27T21:51:29.961Z,77.30
2018-04-27T21:53:58.063Z,77.30
2018-04-27T21:56:26.175Z,77.10
2018-04-27T21:58:55.280Z,77.50
2018-04-27T22:01:24.963Z,78.00
2018-04-27T22:03:59.810Z,78.00
2018-04-27T22:06:28.679Z,78.50
2018-04-27T22:08:57.738Z,78.00
2018-04-27T22:11:31.700Z,78.40
2018-04-27T22:14:00.596Z,79.10
2018-04-27T22:16:37.285Z,79.10
2018-04-27T22:19:08.091Z,79.10
2018-04-27T22:21:38.028Z,79.10
2018-04-27T22:24:08.699Z,78.70
2018-04-27T22:26:38.411Z,78.70
2018-04-27T22:29:13.085Z,78.50
2018-04-27T22:31:41.243Z,78.30
2018-04-27T22:34:09.334Z,78.20
2018-04-27T22:36:48.778Z,78.50
2018-04-27T22:39:29.591Z,79.30
2018-04-27T22:45:13.368Z,79.70
2018-04-27T22:47:57.283Z,80.00
2018-04-27T22:50:25.377Z,80.10
2018-04-27T22:52:53.470Z,80.10
2018-04-27T22:55:21.568Z,80.30
2018-04-27T22:57:51.200Z,81.10
2018-04-27T23:00:19.426Z,80.50
2018-04-27T23:02:47.549Z,80.60
2018-04-27T23:05:23.270Z,80.80
2018-04-27T23:07:52.265Z,80.90
2018-04-27T23:10:23.217Z,82.50
2018-04-27T23:13:03.600Z,82.30
2018-04-27T23:15:47.388Z,82.30
2018-04-27T23:18:18.440Z,82.30
2018-04-27T23:20:48.383Z,82.20
2018-04-27T23:23:17.225Z,82.00
2018-04-27T23:25:46.175Z,81.80
2018-04-27T23:28:14.375Z,81.20
2018-04-27T23:30:43.389Z,80.90
2018-04-27T23:33:12.954Z,80.20
2018-04-27T23:35:59.953Z,80.10
2018-04-27T23:38:29.025Z,79.10
2018-04-27T23:40:57.131Z,79.00
2018-04-27T23:43:28.300Z,78.80
2018-04-27T23:45:56.424Z,78.80
2018-04-27T23:48:25.293Z,78.40
2018-04-27T23:50:54.143Z,78.40
2018-04-27T23:53:22.252Z,78.20
2018-04-27T23:55:51.149Z,78.70
2018-04-27T23:58:25.690Z,79.10
